Time;durP1;ratioP1;P1;durP2;ratioP2;P2;SDS_P1;SDS_P2;PMS_P1;PMS_P2;Temp;Humidity;BMP_temperature;BMP_pressure;BME280_temperature;BME280_humidity;BME280_pressure;Samples;Min_cycle;Max_cycle;Signal;HPM_P1;HPM_P2
2021/12/01 00:01:40;;;;;;;1.13;0.60;;;5.20;29.80;;;;;;5054156;28;20052;-72
2021/12/01 00:04:10;;;;;;;0.70;0.60;;;5.20;30.60;;;;;;5068621;28;20052;-72
2021/12/01 00:06:38;;;;;;;0.85;0.70;;;5.20;30.80;;;;;;5062616;28;20032;-72
2021/12/01 00:09:06;;;;;;;1.05;0.65;;;5.10;31.50;;;;;;5066363;28;20061;-72
2021/12/01 00:11:34;;;;;;;0.68;0.60;;;5.10;33.30;;;;;;5063205;28;20429;-71
2021/12/01 00:14:04;;;;;;;1.13;0.80;;;5.10;33.90;;;;;;5060309;28;20033;-72
2021/12/01 00:16:33;;;;;;;1.33;0.65;;;5.10;33.90;;;;;;5065107;28;20041;-72
2021/12/01 00:19:01;;;;;;;0.45;0.40;;;5.10;34.40;;;;;;5065575;28;20044;-74
2021/12/01 00:21:31;;;;;;;1.55;0.70;;;5.00;34.20;;;;;;5060436;28;20056;-72
2021/12/01 00:24:01;;;;;;;2.97;1.00;;;5.00;35.60;;;;;;5063910;28;20053;-72
2021/12/01 00:26:30;;;;;;;0.63;0.63;;;5.00;36.90;;;;;;5063196;28;20045;-72
2021/12/01 00:29:02;;;;;;;1.50;0.80;;;4.90;37.00;;;;;;5058532;28;20040;-73
2021/12/01 00:31:30;;;;;;;1.52;0.70;;;5.00;37.30;;;;;;5064698;28;20045;-72
2021/12/01 00:33:59;;;;;;;1.83;0.90;;;4.90;37.60;;;;;;5062173;28;20083;-73
2021/12/01 00:36:31;;;;;;;1.42;0.70;;;4.90;38.30;;;;;;5063325;28;20036;-73
2021/12/01 00:39:05;;;;;;;1.00;0.70;;;4.90;38.50;;;;;;5064230;28;20109;-72
2021/12/01 00:41:33;;;;;;;1.15;0.98;;;4.80;39.90;;;;;;5062407;28;20122;-72
2021/12/01 00:44:02;;;;;;;1.23;0.93;;;4.80;40.20;;;;;;5061768;28;20041;-74
2021/12/01 00:46:39;;;;;;;1.73;0.90;;;4.80;40.90;;;;;;5060032;28;20044;-74
2021/12/01 00:49:11;;;;;;;1.15;0.88;;;4.80;41.90;;;;;;5058965;28;20048;-75
2021/12/01 00:51:43;;;;;;;0.85;0.65;;;4.80;42.00;;;;;;5058824;28;20047;-75
2021/12/01 00:54:11;;;;;;;2.10;1.17;;;4.80;42.00;;;;;;5068603;28;20089;-75
2021/12/01 00:56:39;;;;;;;0.90;0.57;;;4.70;42.00;;;;;;5061939;28;20048;-75
2021/12/01 00:59:07;;;;;;;1.33;0.73;;;4.70;42.00;;;;;;5063599;28;20048;-76
2021/12/01 01:01:36;;;;;;;1.67;0.50;;;4.80;42.00;;;;;;5061201;28;20047;-76
2021/12/01 01:04:04;;;;;;;1.13;0.63;;;4.80;41.50;;;;;;5060357;28;20044;-75
2021/12/01 01:06:33;;;;;;;1.00;0.75;;;4.80;41.00;;;;;;5065994;28;20500;-75
2021/12/01 01:09:05;;;;;;;1.17;0.80;;;4.80;41.00;;;;;;5063812;28;20040;-75
2021/12/01 01:17:10;;;;;;;0.52;0.52;;;4.80;39.50;;;;;;5060821;28;20048;-72
2021/12/01 01:19:40;;;;;;;0.80;0.57;;;4.90;37.90;;;;;;5061230;28;20051;-73
2021/12/01 01:22:09;;;;;;;2.53;0.95;;;4.90;37.20;;;;;;5062795;28;20080;-73
2021/12/01 01:24:41;;;;;;;0.90;0.57;;;4.80;37.00;;;;;;5060073;28;20064;-73
2021/12/01 01:27:11;;;;;;;1.08;0.60;;;4.80;38.10;;;;;;5059460;28;20045;-73
2021/12/01 01:29:40;;;;;;;1.65;0.90;;;4.80;38.60;;;;;;5041782;28;20040;-73
2021/12/01 01:32:09;;;;;;;3.00;0.63;;;4.80;37.20;;;;;;5060815;28;20040;-74
2021/12/01 01:34:39;;;;;;;0.68;0.55;;;4.80;36.30;;;;;;5062129;28;20073;-72
2021/12/01 01:37:08;;;;;;;2.97;0.52;;;4.80;36.70;;;;;;5064778;28;20058;-73
2021/12/01 01:39:37;;;;;;;1.13;0.68;;;4.80;36.50;;;;;;5054135;28;20059;-72
2021/12/01 01:42:10;;;;;;;0.70;0.55;;;4.80;35.80;;;;;;5057608;28;20044;-73
2021/12/01 01:44:39;;;;;;;0.60;0.60;;;4.80;35.30;;;;;;5056230;28;20040;-73
2021/12/01 01:47:09;;;;;;;0.88;0.77;;;4.80;34.10;;;;;;5061696;28;20582;-73
2021/12/01 01:49:49;;;;;;;0.88;0.73;;;4.80;33.70;;;;;;5064708;28;20044;-73
2021/12/01 01:52:17;;;;;;;4.95;0.93;;;4.80;35.10;;;;;;5058683;28;20117;-73
2021/12/01 01:54:45;;;;;;;1.50;0.73;;;4.80;34.50;;;;;;5060694;28;20516;-74
2021/12/01 01:57:16;;;;;;;1.08;0.80;;;4.80;34.80;;;;;;5063137;28;20040;-74
2021/12/01 01:59:46;;;;;;;1.17;0.80;;;4.80;34.50;;;;;;5064378;28;20040;-74
2021/12/01 02:02:15;;;;;;;1.35;0.88;;;4.80;34.60;;;;;;5056833;28;20048;-73
2021/12/01 02:04:45;;;;;;;1.08;0.80;;;4.80;34.00;;;;;;5067798;28;20094;-73
2021/12/01 02:07:13;;;;;;;1.00;0.80;;;4.80;33.70;;;;;;5065126;28;20496;-73
2021/12/01 02:09:42;;;;;;;1.00;0.70;;;4.80;33.70;;;;;;5058143;28;20552;-73
2021/12/01 02:12:12;;;;;;;1.02;0.73;;;4.80;34.00;;;;;;5063095;28;20113;-73
2021/12/01 02:14:46;;;;;;;1.98;1.00;;;4.80;33.70;;;;;;5063755;28;20060;-73
2021/12/01 02:17:17;;;;;;;1.02;0.75;;;4.80;33.60;;;;;;5058111;28;20049;-73
2021/12/01 02:19:45;;;;;;;0.98;0.70;;;4.80;33.70;;;;;;5054880;28;20048;-73
2021/12/01 02:22:21;;;;;;;2.03;0.90;;;4.90;33.80;;;;;;5060516;28;20086;-73
2021/12/01 02:24:49;;;;;;;1.02;0.70;;;4.80;33.70;;;;;;5066893;28;20045;-72
2021/12/01 02:27:17;;;;;;;0.90;0.77;;;4.90;33.00;;;;;;5067934;28;20044;-73
2021/12/01 02:29:48;;;;;;;1.48;0.77;;;4.90;33.20;;;;;;5056899;28;20135;-72
2021/12/01 02:32:16;;;;;;;1.33;0.95;;;4.90;33.00;;;;;;5055468;28;20515;-72
2021/12/01 02:34:44;;;;;;;1.02;0.80;;;4.90;32.40;;;;;;5064891;28;20169;-73
2021/12/01 02:37:12;;;;;;;2.13;0.90;;;4.90;32.30;;;;;;5045364;28;20040;-72
2021/12/01 02:39:42;;;;;;;1.63;1.00;;;4.90;31.80;;;;;;5056596;28;20078;-72
2021/12/01 02:42:20;;;;;;;2.50;1.02;;;4.90;32.50;;;;;;5060757;28;20503;-72
2021/12/01 02:44:48;;;;;;;1.08;0.73;;;4.90;31.70;;;;;;5059175;28;20048;-72
2021/12/01 02:47:17;;;;;;;1.00;0.90;;;4.90;31.10;;;;;;5060686;28;20058;-72
2021/12/01 02:49:45;;;;;;;3.47;1.20;;;4.90;31.50;;;;;;5059211;28;20059;-72
2021/12/01 02:52:15;;;;;;;1.10;1.00;;;4.90;32.00;;;;;;5055077;28;20137;-72
2021/12/01 02:54:44;;;;;;;1.45;1.35;;;4.90;31.40;;;;;;5060422;28;20045;-72
2021/12/01 02:57:13;;;;;;;2.10;0.90;;;4.90;31.60;;;;;;5060952;28;20040;-73
2021/12/01 02:59:41;;;;;;;1.63;1.20;;;4.90;32.20;;;;;;5059684;28;20389;-73
2021/12/01 03:02:13;;;;;;;1.60;1.23;;;4.90;32.10;;;;;;5062641;28;20043;-73
2021/12/01 03:04:41;;;;;;;1.67;1.25;;;4.90;33.10;;;;;;5060307;28;20049;-73
2021/12/01 03:07:12;;;;;;;1.98;1.15;;;4.90;31.90;;;;;;5063085;28;20091;-72
2021/12/01 03:09:40;;;;;;;2.05;1.15;;;4.90;31.20;;;;;;5060422;28;20519;-73
2021/12/01 03:12:12;;;;;;;1.38;1.20;;;4.90;31.40;;;;;;5059575;28;20044;-73
2021/12/01 03:14:40;;;;;;;1.30;1.00;;;4.90;31.00;;;;;;5068952;28;20041;-72
2021/12/01 03:17:12;;;;;;;1.52;0.98;;;5.00;30.40;;;;;;5063136;28;20036;-73
2021/12/01 03:19:42;;;;;;;3.38;0.82;;;5.00;29.70;;;;;;5061806;28;20040;-71
2021/12/01 03:22:13;;;;;;;1.05;0.73;;;5.00;29.10;;;;;;5063728;28;20055;-72
2021/12/01 03:24:41;;;;;;;0.75;0.70;;;5.10;29.20;;;;;;5065500;28;20040;-73
2021/12/01 03:27:13;;;;;;;0.90;0.77;;;5.00;28.70;;;;;;5061268;28;20518;-73
2021/12/01 03:29:41;;;;;;;1.38;1.00;;;5.10;28.10;;;;;;5056210;28;20192;-73
2021/12/01 03:32:13;;;;;;;1.40;0.82;;;5.10;27.70;;;;;;5055835;28;20043;-73
2021/12/01 03:34:44;;;;;;;1.40;0.90;;;5.10;27.30;;;;;;5064668;28;20036;-73
2021/12/01 03:37:14;;;;;;;2.58;1.15;;;5.10;27.40;;;;;;5065290;28;20129;-72
2021/12/01 03:39:42;;;;;;;1.00;0.80;;;5.10;26.50;;;;;;5059471;28;20048;-72
2021/12/01 03:42:10;;;;;;;1.50;0.70;;;5.10;27.60;;;;;;5061775;28;20083;-72
2021/12/01 03:44:43;;;;;;;1.42;0.85;;;5.10;27.20;;;;;;5070410;28;20046;-72
2021/12/01 03:47:11;;;;;;;1.85;0.85;;;5.20;27.50;;;;;;5063422;28;20048;-72
2021/12/01 03:49:40;;;;;;;1.35;0.85;;;5.20;26.30;;;;;;5063138;28;20055;-72
2021/12/01 03:52:14;;;;;;;1.38;1.00;;;5.20;26.30;;;;;;5063043;28;20043;-72
2021/12/01 03:54:43;;;;;;;0.95;0.80;;;5.20;26.60;;;;;;5064338;28;20057;-72
2021/12/01 03:57:13;;;;;;;1.92;0.80;;;5.20;26.50;;;;;;5066312;28;20040;-72
2021/12/01 03:59:44;;;;;;;2.53;1.00;;;5.20;26.20;;;;;;5065723;28;20404;-72
2021/12/01 04:02:12;;;;;;;1.00;0.90;;;5.20;26.60;;;;;;5060649;28;20105;-73
2021/12/01 04:04:44;;;;;;;1.73;0.80;;;5.20;26.60;;;;;;5067406;28;20040;-73
2021/12/01 04:07:17;;;;;;;1.77;1.00;;;5.30;26.60;;;;;;5064908;28;20055;-72
2021/12/01 04:09:46;;;;;;;1.02;0.93;;;5.30;26.20;;;;;;5062729;28;20625;-72
2021/12/01 04:12:14;;;;;;;2.53;1.15;;;5.30;26.60;;;;;;5062631;28;20048;-72
2021/12/01 04:14:43;;;;;;;1.50;1.00;;;5.30;26.30;;;;;;5064840;28;20543;-70
2021/12/01 04:17:13;;;;;;;1.88;1.52;;;5.40;26.00;;;;;;5063913;28;20170;-72
2021/12/01 04:19:45;;;;;;;1.40;1.23;;;5.40;25.60;;;;;;5064681;28;20473;-72
2021/12/01 04:22:17;;;;;;;2.17;1.40;;;5.40;26.30;;;;;;5060217;28;20592;-72
2021/12/01 04:24:45;;;;;;;1.30;1.05;;;5.30;26.60;;;;;;5065036;28;20454;-72
2021/12/01 04:27:13;;;;;;;2.70;1.48;;;5.30;26.60;;;;;;5065216;28;20399;-72
2021/12/01 04:29:44;;;;;;;1.08;0.80;;;5.30;26.60;;;;;;5060203;28;21162;-72
2021/12/01 04:32:16;;;;;;;1.30;0.90;;;5.30;26.60;;;;;;5063473;28;20048;-71
2021/12/01 04:34:44;;;;;;;1.70;1.10;;;5.40;26.70;;;;;;5065015;28;20086;-72
2021/12/01 04:37:12;;;;;;;1.85;1.00;;;5.40;26.70;;;;;;5061728;28;20048;-71
2021/12/01 04:39:42;;;;;;;1.70;1.10;;;5.40;26.30;;;;;;5068273;28;20093;-71
2021/12/01 04:42:11;;;;;;;2.63;1.20;;;5.40;26.30;;;;;;5057624;28;20045;-72
2021/12/01 04:44:44;;;;;;;1.83;1.10;;;5.40;26.70;;;;;;5061753;28;20040;-72
2021/12/01 04:47:15;;;;;;;1.60;1.10;;;5.40;26.70;;;;;;5066580;28;20546;-71
2021/12/01 04:49:43;;;;;;;1.90;1.30;;;5.40;26.10;;;;;;5061559;28;20045;-72
2021/12/01 04:52:12;;;;;;;1.63;1.13;;;5.50;26.00;;;;;;5059909;28;20572;-72
2021/12/01 04:54:41;;;;;;;1.55;1.20;;;5.50;25.50;;;;;;5066946;28;20037;-72
2021/12/01 04:57:12;;;;;;;2.80;1.63;;;5.50;26.30;;;;;;5064076;28;20047;-71
2021/12/01 04:59:41;;;;;;;2.60;1.50;;;5.40;26.70;;;;;;5063952;28;20064;-71
2021/12/01 05:02:11;;;;;;;2.55;1.65;;;5.50;26.60;;;;;;5054995;28;20041;-71
2021/12/01 05:04:41;;;;;;;2.55;1.80;;;5.50;25.90;;;;;;5063907;28;20044;-71
2021/12/01 05:07:10;;;;;;;2.35;1.65;;;5.40;26.70;;;;;;5069560;28;20041;-71
2021/12/01 05:09:38;;;;;;;3.42;1.73;;;5.40;26.70;;;;;;5061364;28;20098;-71
2021/12/01 05:12:07;;;;;;;2.00;1.48;;;5.30;27.90;;;;;;5062449;28;20208;-71
2021/12/01 05:14:39;;;;;;;2.13;1.42;;;5.40;27.90;;;;;;5066486;28;20048;-72
2021/12/01 05:17:13;;;;;;;3.20;1.83;;;5.40;27.60;;;;;;5066359;28;20060;-71
2021/12/01 05:19:42;;;;;;;3.17;1.73;;;5.30;28.80;;;;;;5060051;28;20044;-71
2021/12/01 05:22:12;;;;;;;2.80;1.70;;;5.30;29.20;;;;;;5063987;28;20040;-71
2021/12/01 05:24:43;;;;;;;1.98;1.52;;;5.30;28.80;;;;;;5063680;28;20124;-72
2021/12/01 05:27:13;;;;;;;2.33;1.58;;;5.40;28.90;;;;;;5059875;28;20115;-71
2021/12/01 05:29:42;;;;;;;2.45;1.52;;;5.30;29.90;;;;;;5064350;28;20491;-72
2021/12/01 05:32:10;;;;;;;2.28;1.30;;;5.40;29.30;;;;;;5062071;28;20048;-71
2021/12/01 05:34:42;;;;;;;2.10;1.20;;;5.40;28.70;;;;;;5061900;28;20491;-71
2021/12/01 05:37:10;;;;;;;1.70;1.10;;;5.50;28.50;;;;;;5070193;28;20045;-73
2021/12/01 05:39:41;;;;;;;5.13;1.10;;;5.50;28.50;;;;;;5059970;28;20496;-71
2021/12/01 05:42:09;;;;;;;1.75;1.00;;;5.60;27.40;;;;;;5059633;28;20131;-71
2021/12/01 05:44:37;;;;;;;1.63;1.10;;;5.60;27.50;;;;;;5069748;28;20507;-72
2021/12/01 05:47:06;;;;;;;1.88;1.02;;;5.60;26.80;;;;;;5060724;28;20040;-72
2021/12/01 05:49:41;;;;;;;1.73;1.15;;;5.60;26.90;;;;;;5059627;28;20044;-72
2021/12/01 05:52:13;;;;;;;1.88;1.00;;;5.60;26.80;;;;;;5062389;28;20047;-72
2021/12/01 05:54:43;;;;;;;1.73;0.85;;;5.70;25.80;;;;;;5061024;28;20068;-72
2021/12/01 05:57:12;;;;;;;2.58;0.95;;;5.80;24.10;;;;;;5061935;28;20098;-72
2021/12/01 05:59:43;;;;;;;1.35;0.77;;;5.80;24.40;;;;;;5062476;28;20068;-71
2021/12/01 06:02:17;;;;;;;1.98;0.85;;;5.80;25.00;;;;;;5058619;28;20045;-71
2021/12/01 06:04:48;;;;;;;1.42;0.98;;;5.80;25.40;;;;;;5068268;28;20048;-70
2021/12/01 06:07:20;;;;;;;1.30;0.73;;;5.80;24.50;;;;;;5064071;28;20036;-72
2021/12/01 06:09:50;;;;;;;2.78;1.20;;;5.90;24.30;;;;;;5057860;28;20086;-70
2021/12/01 06:12:19;;;;;;;1.38;0.90;;;5.80;24.60;;;;;;5063696;28;20049;-72
2021/12/01 06:14:51;;;;;;;1.05;0.80;;;5.90;24.10;;;;;;5064311;28;20553;-71
2021/12/01 06:17:19;;;;;;;1.17;0.70;;;6.00;23.30;;;;;;5062981;28;20519;-72
2021/12/01 06:19:47;;;;;;;1.02;0.77;;;6.00;22.90;;;;;;5061930;28;20804;-72
2021/12/01 06:22:22;;;;;;;2.20;0.70;;;5.90;22.60;;;;;;5058711;28;20189;-71
2021/12/01 06:24:51;;;;;;;1.13;0.57;;;5.90;23.20;;;;;;5061831;28;20055;-71
2021/12/01 06:27:19;;;;;;;1.67;0.77;;;5.90;22.90;;;;;;5065226;28;20159;-71
2021/12/01 06:29:53;;;;;;;1.10;0.60;;;5.90;23.40;;;;;;5060687;28;20048;-72
2021/12/01 06:32:22;;;;;;;1.75;1.00;;;6.00;22.00;;;;;;5057295;28;20131;-72
2021/12/01 06:34:50;;;;;;;1.13;0.60;;;6.10;21.20;;;;;;5062339;28;20041;-71
2021/12/01 06:37:21;;;;;;;0.80;0.60;;;6.10;21.20;;;;;;5059267;28;20037;-72
2021/12/01 06:39:53;;;;;;;2.40;1.13;;;6.10;20.90;;;;;;5060506;28;20052;-70
2021/12/01 06:42:21;;;;;;;0.85;0.60;;;6.10;21.70;;;;;;5064090;28;20076;-72
2021/12/01 06:44:53;;;;;;;0.88;0.52;;;6.10;20.30;;;;;;5064117;28;20041;-71
2021/12/01 06:47:21;;;;;;;1.20;1.00;;;6.20;19.70;;;;;;5067644;28;20048;-72
2021/12/01 06:49:51;;;;;;;0.90;0.68;;;6.20;20.60;;;;;;5064693;28;20041;-71
2021/12/01 06:52:23;;;;;;;1.50;0.80;;;6.20;20.60;;;;;;5062938;28;20135;-72
2021/12/01 06:54:56;;;;;;;1.17;0.60;;;6.20;20.40;;;;;;5067435;28;20396;-71
2021/12/01 06:57:29;;;;;;;0.88;0.50;;;6.20;20.30;;;;;;5068012;28;20040;-72
2021/12/01 07:00:03;;;;;;;1.40;0.75;;;6.30;18.90;;;;;;5062935;28;20400;-71
2021/12/01 07:02:31;;;;;;;2.70;0.60;;;6.20;19.90;;;;;;5068975;28;20032;-72
2021/12/01 07:05:01;;;;;;;1.38;0.50;;;6.30;19.90;;;;;;5064624;28;20041;-71
2021/12/01 07:07:31;;;;;;;1.02;0.55;;;6.30;19.30;;;;;;5065368;28;20072;-72
2021/12/01 07:10:02;;;;;;;2.67;0.80;;;6.30;20.50;;;;;;5066272;28;20080;-71
2021/12/01 07:12:30;;;;;;;2.38;0.93;;;6.40;19.40;;;;;;5065833;28;20091;-71
2021/12/01 07:14:59;;;;;;;1.48;0.90;;;6.40;18.60;;;;;;5069044;28;20037;-72
2021/12/01 07:17:30;;;;;;;1.63;0.70;;;6.40;18.00;;;;;;5070265;28;20090;-71
2021/12/01 07:20:05;;;;;;;2.63;0.77;;;6.50;17.10;;;;;;5063522;28;20048;-72
2021/12/01 07:22:38;;;;;;;1.17;0.63;;;6.50;17.10;;;;;;5065417;28;20417;-71
2021/12/01 07:25:07;;;;;;;2.10;0.90;;;6.60;17.00;;;;;;5066886;28;20072;-72
2021/12/01 07:27:35;;;;;;;1.05;0.68;;;6.60;16.80;;;;;;5063825;28;20048;-72
2021/12/01 07:30:04;;;;;;;0.98;0.70;;;6.70;15.70;;;;;;5066551;28;20053;-71
2021/12/01 07:32:35;;;;;;;0.88;0.70;;;6.70;15.60;;;;;;5068896;28;20118;-71
2021/12/01 07:35:06;;;;;;;0.65;0.50;;;6.70;15.60;;;;;;5060983;28;20043;-71
2021/12/01 07:37:40;;;;;;;2.17;0.82;;;6.70;15.20;;;;;;5065891;28;20047;-72
2021/12/01 07:40:10;;;;;;;2.05;0.30;;;6.70;14.90;;;;;;5063723;28;20052;-72
2021/12/01 07:42:38;;;;;;;2.45;0.70;;;6.80;14.00;;;;;;5062836;28;20036;-71
2021/12/01 07:45:08;;;;;;;0.90;0.50;;;6.80;14.90;;;;;;5070084;28;20037;-71
2021/12/01 07:47:36;;;;;;;1.73;0.73;;;6.80;14.10;;;;;;5064213;28;20508;-71
2021/12/01 07:50:08;;;;;;;3.50;1.02;;;6.90;13.80;;;;;;5065679;28;20049;-71
2021/12/01 07:52:43;;;;;;;2.28;0.70;;;6.90;12.10;;;;;;5066341;28;20040;-71
2021/12/01 07:55:13;;;;;;;2.40;1.05;;;6.90;13.00;;;;;;5061767;28;20040;-72
2021/12/01 07:57:42;;;;;;;0.77;0.50;;;6.90;13.40;;;;;;5064559;28;20040;-71
2021/12/01 08:00:13;;;;;;;1.13;0.70;;;6.90;12.70;;;;;;5066614;28;20048;-71
2021/12/01 08:02:47;;;;;;;1.42;0.52;;;6.90;12.50;;;;;;5061977;28;20068;-71
2021/12/01 08:05:15;;;;;;;0.88;0.65;;;7.00;11.70;;;;;;5067059;28;20061;-71
2021/12/01 08:07:45;;;;;;;0.63;0.45;;;7.00;11.90;;;;;;5064618;28;20040;-71
2021/12/01 08:10:14;;;;;;;1.33;0.43;;;7.00;11.70;;;;;;5061648;28;20048;-71
2021/12/01 08:12:47;;;;;;;1.02;0.70;;;7.10;11.60;;;;;;5066521;28;20048;-71
2021/12/01 08:15:15;;;;;;;1.60;0.63;;;7.10;11.90;;;;;;5062051;28;20087;-71
2021/12/01 08:17:47;;;;;;;1.33;0.75;;;7.10;11.50;;;;;;5062330;28;20550;-72
2021/12/01 08:20:15;;;;;;;1.15;0.55;;;7.10;11.70;;;;;;5064189;28;20131;-71
2021/12/01 08:22:45;;;;;;;1.00;0.40;;;7.20;11.20;;;;;;5064524;28;20070;-70
2021/12/01 08:25:14;;;;;;;4.15;0.50;;;7.20;11.10;;;;;;5066130;28;20060;-71
2021/12/01 08:27:42;;;;;;;0.95;0.57;;;7.30;10.50;;;;;;5070527;28;20059;-71
2021/12/01 08:30:11;;;;;;;2.17;0.60;;;7.30;10.50;;;;;;5060750;28;20664;-70
2021/12/01 08:32:46;;;;;;;4.75;2.47;;;7.40;10.50;;;;;;5055724;28;20048;-71
2021/12/01 08:35:14;;;;;;;1.85;0.55;;;7.40;10.50;;;;;;5066088;28;20048;-70
2021/12/01 08:37:45;;;;;;;0.55;0.50;;;7.50;10.80;;;;;;5060658;28;20508;-70
2021/12/01 08:40:18;;;;;;;0.60;0.47;;;7.60;9.90;;;;;;5064169;28;20504;-71
2021/12/01 08:42:47;;;;;;;1.48;0.60;;;7.60;10.40;;;;;;5064151;28;20051;-71
2021/12/01 08:45:15;;;;;;;0.88;0.50;;;7.70;9.90;;;;;;5061227;28;20094;-71
2021/12/01 08:47:43;;;;;;;1.20;0.30;;;7.90;9.40;;;;;;5067189;28;20130;-72
2021/12/01 08:50:13;;;;;;;2.58;0.57;;;7.90;9.30;;;;;;5061002;28;20045;-71
2021/12/01 08:52:45;;;;;;;0.88;0.50;;;8.00;8.80;;;;;;5060491;28;20049;-71
2021/12/01 08:55:21;;;;;;;2.63;0.40;;;8.10;8.00;;;;;;5067128;28;20122;-72
2021/12/01 08:58:13;;;;;;;0.98;0.43;;;8.20;7.90;;;;;;5062551;28;20529;-71
2021/12/01 09:00:44;;;;;;;2.55;0.50;;;8.30;7.40;;;;;;5061660;28;20045;-71
2021/12/01 09:03:18;;;;;;;1.75;0.57;;;8.40;7.50;;;;;;5067686;28;20045;-70
2021/12/01 09:05:47;;;;;;;0.95;0.60;;;8.50;6.70;;;;;;5064240;28;20044;-70
2021/12/01 09:08:17;;;;;;;3.97;1.83;;;8.50;7.60;;;;;;5059665;28;20047;-71
2021/12/01 09:10:47;;;;;;;0.63;0.52;;;8.50;7.00;;;;;;5063432;28;20072;-71
2021/12/01 09:13:16;;;;;;;0.52;0.30;;;8.40;7.30;;;;;;5064662;28;20048;-71
2021/12/01 09:15:52;;;;;;;0.95;0.43;;;8.50;7.60;;;;;;5070567;28;20119;-71
2021/12/01 09:18:20;;;;;;;2.05;0.40;;;8.50;7.50;;;;;;5062005;28;20090;-71
2021/12/01 09:20:52;;;;;;;0.50;0.30;;;8.50;7.50;;;;;;5063529;28;20045;-71
2021/12/01 09:23:20;;;;;;;0.30;0.30;;;8.50;7.50;;;;;;5063032;28;20098;-71
2021/12/01 09:25:49;;;;;;;0.73;0.30;;;8.50;7.30;;;;;;5066428;28;20045;-71
2021/12/01 09:28:22;;;;;;;0.60;0.30;;;8.50;7.10;;;;;;5064747;28;20448;-71
2021/12/01 09:30:54;;;;;;;0.52;0.20;;;8.50;7.20;;;;;;5059165;28;20055;-72
2021/12/01 09:33:22;;;;;;;0.68;0.30;;;8.50;7.10;;;;;;5066551;28;20102;-72
2021/12/01 09:35:53;;;;;;;1.15;0.40;;;8.60;6.80;;;;;;5067774;28;20402;-71
2021/12/01 09:38:22;;;;;;;0.55;0.40;;;8.60;6.70;;;;;;5060718;28;20527;-71
2021/12/01 09:40:54;;;;;;;1.10;0.60;;;8.60;6.80;;;;;;5058824;28;20041;-71
2021/12/01 09:43:31;;;;;;;1.98;1.20;;;8.60;6.70;;;;;;5063086;28;20688;-70
2021/12/01 09:46:08;;;;;;;1.65;0.50;;;8.60;6.40;;;;;;5058292;28;20066;-72
2021/12/01 09:48:38;;;;;;;0.40;0.30;;;8.60;6.80;;;;;;5061957;28;20048;-70
2021/12/01 09:51:18;;;;;;;0.45;0.20;;;8.70;6.20;;;;;;5052361;28;20052;-71
2021/12/01 09:53:46;;;;;;;0.35;0.25;;;8.60;6.20;;;;;;5062927;28;20087;-70
2021/12/01 09:56:16;;;;;;;0.90;0.28;;;8.70;6.40;;;;;;5066932;28;20052;-70
2021/12/01 09:58:44;;;;;;;0.70;0.30;;;8.70;5.60;;;;;;5044467;28;20401;-71
2021/12/01 10:01:19;;;;;;;0.20;0.20;;;8.60;5.80;;;;;;5060956;28;20072;-72
2021/12/01 10:03:51;;;;;;;0.17;0.17;;;8.70;6.10;;;;;;5045663;28;20036;-69
2021/12/01 10:06:21;;;;;;;0.65;0.30;;;8.70;6.20;;;;;;5060475;28;20041;-72
2021/12/01 10:08:57;;;;;;;0.73;0.20;;;8.70;6.20;;;;;;5060580;28;20040;-72
2021/12/01 10:11:28;;;;;;;0.90;0.30;;;8.70;5.40;;;;;;5059756;28;20563;-71
2021/12/01 10:14:04;;;;;;;0.82;0.40;;;8.70;5.60;;;;;;5059805;28;20146;-70
2021/12/01 10:16:35;;;;;;;0.52;0.40;;;8.80;5.40;;;;;;5061483;28;20055;-71
2021/12/01 10:19:28;;;;;;;1.48;0.30;;;8.80;5.40;;;;;;5062333;28;20044;-71
2021/12/01 10:21:57;;;;;;;1.77;0.30;;;8.80;5.50;;;;;;5065770;28;20044;-70
2021/12/01 10:24:30;;;;;;;6.00;2.63;;;8.90;5.00;;;;;;5064963;28;20725;-71
2021/12/01 10:27:11;;;;;;;0.70;0.30;;;8.90;4.80;;;;;;5065871;28;20488;-71
2021/12/01 10:29:43;;;;;;;0.20;0.20;;;9.00;4.90;;;;;;5062803;28;20044;-72
2021/12/01 10:32:16;;;;;;;0.98;0.32;;;9.00;5.20;;;;;;5066364;28;20074;-71
2021/12/01 10:34:52;;;;;;;0.45;0.20;;;9.00;4.30;;;;;;5069837;28;20117;-71
2021/12/01 10:37:28;;;;;;;0.60;0.30;;;9.00;4.50;;;;;;5064086;28;20048;-71
2021/12/01 10:40:07;;;;;;;1.17;0.40;;;9.10;4.30;;;;;;5065920;28;20048;-71
2021/12/01 10:42:51;;;;;;;2.17;0.40;;;9.00;4.80;;;;;;5069971;28;20518;-71
2021/12/01 10:45:24;;;;;;;0.52;0.25;;;9.10;4.90;;;;;;5065375;28;20048;-71
2021/12/01 10:47:57;;;;;;;0.73;0.40;;;9.10;5.20;;;;;;5065088;28;20053;-70
2021/12/01 10:50:27;;;;;;;0.55;0.30;;;9.10;4.90;;;;;;5067223;28;20097;-71
2021/12/01 10:53:04;;;;;;;3.30;0.43;;;9.20;4.40;;;;;;5065162;28;20514;-70
2021/12/01 10:55:43;;;;;;;0.50;0.20;;;9.20;4.30;;;;;;5065673;28;20068;-71
2021/12/01 10:58:16;;;;;;;2.20;0.50;;;9.20;4.30;;;;;;5068845;28;20093;-72
2021/12/01 11:00:47;;;;;;;0.30;0.20;;;9.30;4.70;;;;;;5064079;28;20078;-70
2021/12/01 11:03:17;;;;;;;2.53;0.20;;;9.30;4.40;;;;;;5066068;28;20052;-72
2021/12/01 11:05:49;;;;;;;1.25;0.30;;;9.30;4.40;;;;;;5067380;28;20072;-71
2021/12/01 11:08:19;;;;;;;0.43;0.30;;;9.30;4.40;;;;;;5060034;28;20048;-71
2021/12/01 11:10:49;;;;;;;2.53;0.40;;;9.30;4.90;;;;;;5065592;28;20048;-71
2021/12/01 11:13:19;;;;;;;1.63;0.65;;;9.30;5.40;;;;;;5067885;28;20520;-70
2021/12/01 11:15:52;;;;;;;0.40;0.30;;;9.20;5.40;;;;;;5069124;28;20636;-70
2021/12/01 11:18:45;;;;;;;0.88;0.30;;;9.20;5.90;;;;;;5060882;28;20487;-71
2021/12/01 11:21:23;;;;;;;2.13;0.40;;;9.20;6.40;;;;;;5064430;28;20102;-71
2021/12/01 11:23:56;;;;;;;;;;;9.20;8.00;;;;;;5066500;28;20408;-70
2021/12/01 11:26:30;;;;;;;0.35;0.20;;;9.10;7.90;;;;;;5063007;28;20311;-70
2021/12/01 11:29:08;;;;;;;0.63;0.38;;;9.10;7.60;;;;;;5064967;28;20068;-71
2021/12/01 11:31:39;;;;;;;0.77;0.40;;;9.10;7.50;;;;;;5062820;28;20057;-71
2021/12/01 11:34:11;;;;;;;0.63;0.38;;;9.20;8.00;;;;;;5062737;28;20072;-69
2021/12/01 11:36:41;;;;;;;0.40;0.20;;;9.20;9.10;;;;;;5067970;28;20526;-70
2021/12/01 11:39:12;;;;;;;0.57;0.30;;;9.20;9.80;;;;;;5066208;28;20074;-71
2021/12/01 11:41:42;;;;;;;1.05;0.38;;;9.20;10.30;;;;;;5059611;28;20049;-71
2021/12/01 11:44:13;;;;;;;0.98;0.28;;;9.10;10.90;;;;;;5070177;28;20044;-71
2021/12/01 11:46:46;;;;;;;0.43;0.28;;;9.20;11.30;;;;;;5063743;28;20037;-70
2021/12/01 11:49:16;;;;;;;0.88;0.25;;;9.20;11.60;;;;;;5059453;28;20044;-70
2021/12/01 11:51:51;;;;;;;0.32;0.30;;;9.20;11.70;;;;;;5068979;28;20447;-70
2021/12/01 11:54:23;;;;;;;0.20;0.20;;;9.20;11.60;;;;;;5069000;28;20066;-71
2021/12/01 11:56:58;;;;;;;0.55;0.30;;;9.30;11.70;;;;;;5063816;28;20401;-70
2021/12/01 11:59:29;;;;;;;0.88;0.40;;;9.30;11.70;;;;;;5062166;28;20041;-71
2021/12/01 12:02:04;;;;;;;0.40;0.40;;;9.30;11.70;;;;;;5063208;28;20135;-70
2021/12/01 12:04:50;;;;;;;0.52;0.30;;;9.40;12.30;;;;;;5065366;28;20041;-70
2021/12/01 12:07:31;;;;;;;0.50;0.30;;;9.50;11.50;;;;;;5069838;28;20603;-71
2021/12/01 12:10:12;;;;;;;0.98;0.20;;;9.60;11.00;;;;;;5063362;28;20041;-70
2021/12/01 12:12:55;;;;;;;0.47;0.20;;;9.70;10.10;;;;;;5060558;28;20484;-70
2021/12/01 12:15:47;;;;;;;0.55;0.35;;;9.70;9.90;;;;;;5067970;28;20040;-70
2021/12/01 12:18:51;;;;;;;0.57;0.28;;;9.70;9.20;;;;;;5063293;28;20074;-71
2021/12/01 12:21:23;;;;;;;0.50;0.40;;;9.80;8.90;;;;;;5058762;28;20125;-70
2021/12/01 12:24:02;;;;;;;;;;;9.90;8.20;;;;;;5065257;28;20497;-72
2021/12/01 12:26:35;;;;;;;0.40;0.40;;;9.90;7.40;;;;;;5069578;28;19927;-71
2021/12/01 12:29:08;;;;;;;1.05;0.30;;;10.10;5.70;;;;;;5059088;28;20040;-70
2021/12/01 12:31:45;;;;;;;0.88;0.30;;;10.10;4.70;;;;;;5062219;28;20459;-70
2021/12/01 12:34:15;;;;;;;0.85;0.38;;;10.20;5.40;;;;;;5067238;28;20048;-70
2021/12/01 12:36:47;;;;;;;0.30;0.20;;;10.20;5.40;;;;;;5063746;28;20052;-70
2021/12/01 12:39:20;;;;;;;0.80;0.30;;;10.20;5.00;;;;;;5058651;28;20611;-71
2021/12/01 12:42:11;;;;;;;0.77;0.30;;;10.20;4.50;;;;;;5061789;28;20294;-71
2021/12/01 12:44:42;;;;;;;1.40;0.40;;;10.20;5.30;;;;;;5061684;28;20098;-71
2021/12/01 12:47:27;;;;;;;0.28;0.17;;;10.10;4.10;;;;;;5063709;28;20227;-71
2021/12/01 12:49:59;;;;;;;0.35;0.22;;;10.00;4.40;;;;;;5061560;28;20040;-71
2021/12/01 12:52:45;;;;;;;1.85;0.22;;;10.00;5.20;;;;;;5061942;28;20692;-72
2021/12/01 12:55:42;;;;;;;2.25;0.40;;;10.00;5.70;;;;;;5062284;28;20047;-71
2021/12/01 12:58:15;;;;;;;1.75;0.45;;;9.90;5.90;;;;;;5054036;28;20072;-72
2021/12/01 13:00:49;;;;;;;2.30;0.65;;;9.90;7.20;;;;;;5062799;28;20241;-71
2021/12/01 13:03:32;;;;;;;0.55;0.30;;;9.90;7.10;;;;;;5062707;28;20048;-71
2021/12/01 13:06:02;;;;;;;0.32;0.20;;;9.80;7.80;;;;;;5063409;28;20495;-72
2021/12/01 13:08:34;;;;;;;0.55;0.30;;;9.80;8.40;;;;;;5061201;28;20049;-72
2021/12/01 13:11:07;;;;;;;0.30;0.22;;;9.70;9.60;;;;;;5057202;28;20091;-72
2021/12/01 13:13:39;;;;;;;0.57;0.20;;;9.70;9.00;;;;;;5069257;28;20123;-71
2021/12/01 13:16:30;;;;;;;0.40;0.30;;;9.70;9.00;;;;;;5065232;28;20174;-71
2021/12/01 13:19:08;;;;;;;0.75;0.20;;;9.70;8.80;;;;;;5058906;28;20041;-71
2021/12/01 13:21:41;;;;;;;0.60;0.30;;;9.70;8.30;;;;;;5063327;28;20041;-72
2021/12/01 13:24:10;;;;;;;1.60;0.25;;;9.80;8.40;;;;;;5061256;28;20044;-71
2021/12/01 13:26:38;;;;;;;2.78;0.40;;;9.70;7.60;;;;;;5064228;28;20045;-71
2021/12/01 13:29:09;;;;;;;0.45;0.32;;;9.80;6.50;;;;;;5062144;28;20051;-70